sensor_id;sensor_type;location;lat;lon;timestamp;P1;durP1;ratioP1;P2;durP2;ratioP2
14698;SDS011;7439;50.804;4.602;2023-04-12T00:00:27;7.00;;;6.30;;
14698;SDS011;7439;50.804;4.602;2023-04-12T00:02:55;7.20;;;6.50;;
14698;SDS011;7439;50.804;4.602;2023-04-12T00:05:25;6.80;;;6.27;;
14698;SDS011;7439;50.804;4.602;2023-04-12T00:07:52;7.33;;;6.83;;
14698;SDS011;7439;50.804;4.602;2023-04-12T00:10:20;7.70;;;7.10;;
14698;SDS011;7439;50.804;4.602;2023-04-12T00:12:47;6.80;;;6.40;;
14698;SDS011;7439;50.804;4.602;2023-04-12T00:15:15;8.40;;;7.70;;
14698;SDS011;7439;50.804;4.602;2023-04-12T00:17:42;7.67;;;7.17;;
14698;SDS011;7439;50.804;4.602;2023-04-12T00:20:11;8.43;;;7.90;;
14698;SDS011;7439;50.804;4.602;2023-04-12T00:22:41;9.20;;;8.53;;
14698;SDS011;7439;50.804;4.602;2023-04-12T00:25:09;9.90;;;8.93;;
14698;SDS011;7439;50.804;4.602;2023-04-12T00:27:37;9.53;;;8.80;;
14698;SDS011;7439;50.804;4.602;2023-04-12T00:30:05;9.70;;;8.93;;
14698;SDS011;7439;50.804;4.602;2023-04-12T00:32:33;9.77;;;8.97;;
14698;SDS011;7439;50.804;4.602;2023-04-12T00:35:01;9.97;;;9.37;;
14698;SDS011;7439;50.804;4.602;2023-04-12T00:37:28;10.10;;;9.57;;
14698;SDS011;7439;50.804;4.602;2023-04-12T00:39:57;9.20;;;8.70;;
14698;SDS011;7439;50.804;4.602;2023-04-12T00:42:24;10.50;;;9.73;;
14698;SDS011;7439;50.804;4.602;2023-04-12T00:44:52;10.03;;;9.10;;
14698;SDS011;7439;50.804;4.602;2023-04-12T00:47:19;10.60;;;9.70;;
14698;SDS011;7439;50.804;4.602;2023-04-12T00:49:46;10.90;;;10.17;;
14698;SDS011;7439;50.804;4.602;2023-04-12T00:52:14;10.33;;;9.73;;
14698;SDS011;7439;50.804;4.602;2023-04-12T00:54:42;11.40;;;10.57;;
14698;SDS011;7439;50.804;4.602;2023-04-12T00:57:11;11.83;;;10.93;;
14698;SDS011;7439;50.804;4.602;2023-04-12T00:59:39;11.17;;;10.37;;
14698;SDS011;7439;50.804;4.602;2023-04-12T01:02:06;10.80;;;10.10;;
14698;SDS011;7439;50.804;4.602;2023-04-12T01:04:33;11.47;;;10.63;;
14698;SDS011;7439;50.804;4.602;2023-04-12T01:07:06;11.23;;;10.43;;
14698;SDS011;7439;50.804;4.602;2023-04-12T01:09:35;11.90;;;10.90;;
14698;SDS011;7439;50.804;4.602;2023-04-12T01:12:13;11.20;;;10.50;;
14698;SDS011;7439;50.804;4.602;2023-04-12T01:14:44;10.23;;;9.63;;
14698;SDS011;7439;50.804;4.602;2023-04-12T01:17:16;10.43;;;9.50;;
14698;SDS011;7439;50.804;4.602;2023-04-12T01:19:51;10.80;;;10.00;;
14698;SDS011;7439;50.804;4.602;2023-04-12T01:22:27;10.63;;;9.97;;
14698;SDS011;7439;50.804;4.602;2023-04-12T01:25:00;10.10;;;9.50;;
14698;SDS011;7439;50.804;4.602;2023-04-12T01:27:34;9.53;;;9.03;;
14698;SDS011;7439;50.804;4.602;2023-04-12T01:30:05;9.33;;;8.53;;
14698;SDS011;7439;50.804;4.602;2023-04-12T01:32:34;9.90;;;9.20;;
14698;SDS011;7439;50.804;4.602;2023-04-12T01:35:03;9.47;;;8.60;;
14698;SDS011;7439;50.804;4.602;2023-04-12T01:37:33;11.87;;;9.43;;
14698;SDS011;7439;50.804;4.602;2023-04-12T01:40:00;8.67;;;8.00;;
14698;SDS011;7439;50.804;4.602;2023-04-12T01:42:29;9.63;;;9.00;;
14698;SDS011;7439;50.804;4.602;2023-04-12T01:44:58;10.00;;;9.30;;
14698;SDS011;7439;50.804;4.602;2023-04-12T01:47:26;9.47;;;8.87;;
14698;SDS011;7439;50.804;4.602;2023-04-12T01:49:54;10.43;;;9.43;;
14698;SDS011;7439;50.804;4.602;2023-04-12T01:52:25;10.27;;;9.47;;
14698;SDS011;7439;50.804;4.602;2023-04-12T01:54:55;9.13;;;8.57;;
14698;SDS011;7439;50.804;4.602;2023-04-12T01:57:23;9.07;;;8.50;;
14698;SDS011;7439;50.804;4.602;2023-04-12T01:59:51;10.37;;;9.37;;
14698;SDS011;7439;50.804;4.602;2023-04-12T02:02:21;9.43;;;8.70;;
14698;SDS011;7439;50.804;4.602;2023-04-12T02:04:49;9.00;;;8.43;;
14698;SDS011;7439;50.804;4.602;2023-04-12T02:07:17;8.97;;;8.37;;
14698;SDS011;7439;50.804;4.602;2023-04-12T02:09:45;9.57;;;8.87;;
14698;SDS011;7439;50.804;4.602;2023-04-12T02:12:12;10.13;;;9.23;;
14698;SDS011;7439;50.804;4.602;2023-04-12T02:14:39;11.03;;;10.07;;
14698;SDS011;7439;50.804;4.602;2023-04-12T02:17:07;10.63;;;9.60;;
14698;SDS011;7439;50.804;4.602;2023-04-12T02:19:38;10.80;;;9.90;;
14698;SDS011;7439;50.804;4.602;2023-04-12T02:22:06;10.17;;;9.53;;
14698;SDS011;7439;50.804;4.602;2023-04-12T02:24:33;10.50;;;9.90;;
14698;SDS011;7439;50.804;4.602;2023-04-12T02:27:01;10.97;;;10.13;;
14698;SDS011;7439;50.804;4.602;2023-04-12T02:29:28;10.83;;;10.13;;
14698;SDS011;7439;50.804;4.602;2023-04-12T02:31:55;10.73;;;9.83;;
14698;SDS011;7439;50.804;4.602;2023-04-12T02:34:23;10.07;;;9.47;;
14698;SDS011;7439;50.804;4.602;2023-04-12T02:36:52;11.03;;;10.23;;
14698;SDS011;7439;50.804;4.602;2023-04-12T02:39:19;10.93;;;10.20;;
14698;SDS011;7439;50.804;4.602;2023-04-12T02:41:48;11.03;;;10.43;;
14698;SDS011;7439;50.804;4.602;2023-04-12T02:44:15;12.73;;;11.97;;
14698;SDS011;7439;50.804;4.602;2023-04-12T02:46:42;11.63;;;11.03;;
14698;SDS011;7439;50.804;4.602;2023-04-12T02:49:10;12.87;;;12.07;;
14698;SDS011;7439;50.804;4.602;2023-04-12T02:51:37;13.13;;;12.43;;
14698;SDS011;7439;50.804;4.602;2023-04-12T02:54:06;13.53;;;12.63;;
14698;SDS011;7439;50.804;4.602;2023-04-12T02:56:34;14.00;;;13.27;;
14698;SDS011;7439;50.804;4.602;2023-04-12T02:59:01;14.17;;;13.57;;
14698;SDS011;7439;50.804;4.602;2023-04-12T03:01:28;15.60;;;14.87;;
14698;SDS011;7439;50.804;4.602;2023-04-12T03:03:56;16.00;;;14.90;;
14698;SDS011;7439;50.804;4.602;2023-04-12T03:06:23;14.50;;;13.77;;
14698;SDS011;7439;50.804;4.602;2023-04-12T03:08:51;15.17;;;14.20;;
14698;SDS011;7439;50.804;4.602;2023-04-12T03:11:19;16.00;;;15.10;;
14698;SDS011;7439;50.804;4.602;2023-04-12T03:13:47;16.00;;;15.00;;
14698;SDS011;7439;50.804;4.602;2023-04-12T03:16:20;16.20;;;15.10;;
14698;SDS011;7439;50.804;4.602;2023-04-12T03:18:49;16.20;;;15.30;;
14698;SDS011;7439;50.804;4.602;2023-04-12T03:21:16;17.60;;;16.50;;
14698;SDS011;7439;50.804;4.602;2023-04-12T03:23:44;16.03;;;15.20;;
14698;SDS011;7439;50.804;4.602;2023-04-12T03:26:11;17.43;;;16.17;;
14698;SDS011;7439;50.804;4.602;2023-04-12T03:28:40;17.00;;;15.80;;
14698;SDS011;7439;50.804;4.602;2023-04-12T03:31:09;16.20;;;15.40;;
14698;SDS011;7439;50.804;4.602;2023-04-12T03:33:37;16.83;;;16.00;;
14698;SDS011;7439;50.804;4.602;2023-04-12T03:36:05;17.77;;;16.87;;
14698;SDS011;7439;50.804;4.602;2023-04-12T03:38:32;16.77;;;15.87;;
14698;SDS011;7439;50.804;4.602;2023-04-12T03:41:00;16.13;;;15.23;;
14698;SDS011;7439;50.804;4.602;2023-04-12T03:43:27;18.90;;;17.90;;
14698;SDS011;7439;50.804;4.602;2023-04-12T03:46:01;19.30;;;18.30;;
14698;SDS011;7439;50.804;4.602;2023-04-12T03:48:29;19.17;;;18.17;;
14698;SDS011;7439;50.804;4.602;2023-04-12T03:50:56;19.47;;;18.47;;
14698;SDS011;7439;50.804;4.602;2023-04-12T03:53:24;19.63;;;18.43;;
14698;SDS011;7439;50.804;4.602;2023-04-12T03:55:52;19.50;;;18.53;;
14698;SDS011;7439;50.804;4.602;2023-04-12T03:58:20;19.80;;;18.80;;
14698;SDS011;7439;50.804;4.602;2023-04-12T04:00:48;18.73;;;17.83;;
14698;SDS011;7439;50.804;4.602;2023-04-12T04:03:16;20.73;;;19.63;;
14698;SDS011;7439;50.804;4.602;2023-04-12T04:05:45;19.33;;;18.20;;
14698;SDS011;7439;50.804;4.602;2023-04-12T04:08:12;19.33;;;18.30;;
14698;SDS011;7439;50.804;4.602;2023-04-12T04:10:39;18.93;;;17.70;;
14698;SDS011;7439;50.804;4.602;2023-04-12T04:13:07;18.93;;;17.83;;
14698;SDS011;7439;50.804;4.602;2023-04-12T04:15:35;17.33;;;16.63;;
14698;SDS011;7439;50.804;4.602;2023-04-12T04:18:02;17.30;;;16.50;;
14698;SDS011;7439;50.804;4.602;2023-04-12T04:20:31;18.23;;;17.33;;
14698;SDS011;7439;50.804;4.602;2023-04-12T04:22:58;17.60;;;16.80;;
14698;SDS011;7439;50.804;4.602;2023-04-12T04:25:26;16.63;;;15.63;;
14698;SDS011;7439;50.804;4.602;2023-04-12T04:27:55;16.10;;;15.37;;
14698;SDS011;7439;50.804;4.602;2023-04-12T04:30:23;15.87;;;15.07;;
14698;SDS011;7439;50.804;4.602;2023-04-12T04:32:51;17.10;;;15.93;;
14698;SDS011;7439;50.804;4.602;2023-04-12T04:35:18;16.33;;;15.57;;
14698;SDS011;7439;50.804;4.602;2023-04-12T04:37:49;16.57;;;15.77;;
14698;SDS011;7439;50.804;4.602;2023-04-12T04:40:17;16.27;;;15.23;;
14698;SDS011;7439;50.804;4.602;2023-04-12T04:42:45;15.63;;;14.93;;
14698;SDS011;7439;50.804;4.602;2023-04-12T04:45:18;14.53;;;13.83;;
14698;SDS011;7439;50.804;4.602;2023-04-12T04:47:46;14.27;;;13.40;;
14698;SDS011;7439;50.804;4.602;2023-04-12T04:50:13;13.97;;;13.30;;
14698;SDS011;7439;50.804;4.602;2023-04-12T04:52:41;13.90;;;13.20;;
14698;SDS011;7439;50.804;4.602;2023-04-12T04:55:10;15.53;;;14.70;;
14698;SDS011;7439;50.804;4.602;2023-04-12T04:57:37;15.10;;;14.40;;
14698;SDS011;7439;50.804;4.602;2023-04-12T05:00:05;16.80;;;15.97;;
14698;SDS011;7439;50.804;4.602;2023-04-12T05:02:35;16.37;;;15.67;;
14698;SDS011;7439;50.804;4.602;2023-04-12T05:05:04;15.37;;;14.67;;
14698;SDS011;7439;50.804;4.602;2023-04-12T05:07:32;14.83;;;14.13;;
14698;SDS011;7439;50.804;4.602;2023-04-12T05:10:01;15.30;;;14.50;;
14698;SDS011;7439;50.804;4.602;2023-04-12T05:12:30;16.20;;;15.40;;
14698;SDS011;7439;50.804;4.602;2023-04-12T05:14:58;16.07;;;15.37;;
14698;SDS011;7439;50.804;4.602;2023-04-12T05:17:25;16.40;;;15.47;;
14698;SDS011;7439;50.804;4.602;2023-04-12T05:19:53;17.40;;;16.60;;
14698;SDS011;7439;50.804;4.602;2023-04-12T05:22:20;18.37;;;17.53;;
14698;SDS011;7439;50.804;4.602;2023-04-12T05:24:48;16.50;;;15.70;;
14698;SDS011;7439;50.804;4.602;2023-04-12T05:27:15;17.87;;;16.97;;
14698;SDS011;7439;50.804;4.602;2023-04-12T05:29:44;17.07;;;16.20;;
14698;SDS011;7439;50.804;4.602;2023-04-12T05:32:12;17.93;;;17.13;;
14698;SDS011;7439;50.804;4.602;2023-04-12T05:34:39;17.30;;;16.17;;
14698;SDS011;7439;50.804;4.602;2023-04-12T05:37:08;15.80;;;15.07;;
14698;SDS011;7439;50.804;4.602;2023-04-12T05:39:35;16.70;;;16.00;;
14698;SDS011;7439;50.804;4.602;2023-04-12T05:42:03;18.43;;;17.23;;
14698;SDS011;7439;50.804;4.602;2023-04-12T05:44:30;18.47;;;17.57;;
14698;SDS011;7439;50.804;4.602;2023-04-12T05:46:59;18.50;;;17.57;;
14698;SDS011;7439;50.804;4.602;2023-04-12T05:49:27;17.10;;;16.20;;
14698;SDS011;7439;50.804;4.602;2023-04-12T05:51:55;20.57;;;19.47;;
14698;SDS011;7439;50.804;4.602;2023-04-12T05:54:23;23.43;;;21.83;;
14698;SDS011;7439;50.804;4.602;2023-04-12T05:56:51;23.00;;;21.30;;
14698;SDS011;7439;50.804;4.602;2023-04-12T05:59:19;23.23;;;21.83;;
14698;SDS011;7439;50.804;4.602;2023-04-12T06:01:46;26.47;;;24.87;;
14698;SDS011;7439;50.804;4.602;2023-04-12T06:04:15;26.60;;;25.10;;
14698;SDS011;7439;50.804;4.602;2023-04-12T06:06:43;29.47;;;27.73;;
14698;SDS011;7439;50.804;4.602;2023-04-12T06:09:11;30.30;;;28.60;;
14698;SDS011;7439;50.804;4.602;2023-04-12T06:11:39;31.47;;;29.47;;
14698;SDS011;7439;50.804;4.602;2023-04-12T06:14:07;34.03;;;31.87;;
14698;SDS011;7439;50.804;4.602;2023-04-12T06:16:35;31.00;;;28.83;;
14698;SDS011;7439;50.804;4.602;2023-04-12T06:19:03;30.53;;;28.50;;
14698;SDS011;7439;50.804;4.602;2023-04-12T06:21:31;34.70;;;32.70;;
14698;SDS011;7439;50.804;4.602;2023-04-12T06:23:59;37.53;;;35.37;;
14698;SDS011;7439;50.804;4.602;2023-04-12T06:26:26;35.63;;;33.43;;
14698;SDS011;7439;50.804;4.602;2023-04-12T06:28:54;35.40;;;33.47;;
14698;SDS011;7439;50.804;4.602;2023-04-12T06:31:22;36.67;;;34.73;;
14698;SDS011;7439;50.804;4.602;2023-04-12T06:33:49;39.93;;;37.47;;
14698;SDS011;7439;50.804;4.602;2023-04-12T06:36:17;42.63;;;40.13;;
14698;SDS011;7439;50.804;4.602;2023-04-12T06:38:46;40.27;;;38.13;;
14698;SDS011;7439;50.804;4.602;2023-04-12T06:41:21;47.23;;;44.70;;
14698;SDS011;7439;50.804;4.602;2023-04-12T06:43:48;48.87;;;46.07;;
14698;SDS011;7439;50.804;4.602;2023-04-12T06:46:16;47.87;;;44.90;;
14698;SDS011;7439;50.804;4.602;2023-04-12T06:48:54;46.63;;;44.10;;
14698;SDS011;7439;50.804;4.602;2023-04-12T06:51:21;44.97;;;42.57;;
14698;SDS011;7439;50.804;4.602;2023-04-12T06:53:50;45.67;;;43.20;;
14698;SDS011;7439;50.804;4.602;2023-04-12T06:56:17;43.73;;;41.33;;
14698;SDS011;7439;50.804;4.602;2023-04-12T06:58:45;49.30;;;46.57;;
14698;SDS011;7439;50.804;4.602;2023-04-12T07:01:12;47.73;;;44.63;;
14698;SDS011;7439;50.804;4.602;2023-04-12T07:03:39;46.33;;;43.23;;
14698;SDS011;7439;50.804;4.602;2023-04-12T07:06:13;49.50;;;46.33;;
14698;SDS011;7439;50.804;4.602;2023-04-12T07:08:40;50.83;;;47.70;;
14698;SDS011;7439;50.804;4.602;2023-04-12T07:11:12;49.93;;;47.20;;
14698;SDS011;7439;50.804;4.602;2023-04-12T07:13:40;54.57;;;51.63;;
14698;SDS011;7439;50.804;4.602;2023-04-12T07:16:07;56.97;;;54.17;;
14698;SDS011;7439;50.804;4.602;2023-04-12T07:18:34;64.13;;;60.87;;
14698;SDS011;7439;50.804;4.602;2023-04-12T07:21:04;65.23;;;61.03;;
14698;SDS011;7439;50.804;4.602;2023-04-12T07:23:31;58.33;;;55.53;;
14698;SDS011;7439;50.804;4.602;2023-04-12T07:25:59;60.33;;;57.10;;
14698;SDS011;7439;50.804;4.602;2023-04-12T07:28:28;63.10;;;59.80;;
14698;SDS011;7439;50.804;4.602;2023-04-12T07:30:55;62.30;;;59.20;;
14698;SDS011;7439;50.804;4.602;2023-04-12T07:33:24;62.33;;;59.23;;
14698;SDS011;7439;50.804;4.602;2023-04-12T07:35:51;64.90;;;61.50;;
14698;SDS011;7439;50.804;4.602;2023-04-12T07:38:18;61.93;;;58.67;;
14698;SDS011;7439;50.804;4.602;2023-04-12T07:40:46;64.10;;;60.47;;
14698;SDS011;7439;50.804;4.602;2023-04-12T07:43:14;58.90;;;56.07;;
14698;SDS011;7439;50.804;4.602;2023-04-12T07:45:44;57.90;;;54.90;;
14698;SDS011;7439;50.804;4.602;2023-04-12T07:48:11;61.83;;;58.53;;
14698;SDS011;7439;50.804;4.602;2023-04-12T07:50:39;60.70;;;57.77;;
14698;SDS011;7439;50.804;4.602;2023-04-12T07:53:18;59.17;;;56.13;;
14698;SDS011;7439;50.804;4.602;2023-04-12T07:55:46;66.90;;;63.03;;
14698;SDS011;7439;50.804;4.602;2023-04-12T07:58:13;63.13;;;60.00;;
14698;SDS011;7439;50.804;4.602;2023-04-12T08:00:41;65.80;;;62.20;;
14698;SDS011;7439;50.804;4.602;2023-04-12T08:03:11;76.73;;;72.47;;
14698;SDS011;7439;50.804;4.602;2023-04-12T08:05:39;83.70;;;79.90;;
14698;SDS011;7439;50.804;4.602;2023-04-12T08:08:06;111.57;;;106.50;;
14698;SDS011;7439;50.804;4.602;2023-04-12T08:10:34;143.60;;;137.60;;
14698;SDS011;7439;50.804;4.602;2023-04-12T08:13:02;153.07;;;146.70;;
14698;SDS011;7439;50.804;4.602;2023-04-12T08:15:30;148.70;;;142.23;;
14698;SDS011;7439;50.804;4.602;2023-04-12T08:17:58;116.53;;;111.00;;
14698;SDS011;7439;50.804;4.602;2023-04-12T08:20:26;117.40;;;112.20;;
14698;SDS011;7439;50.804;4.602;2023-04-12T08:35:23;179.60;;;171.90;;
14698;SDS011;7439;50.804;4.602;2023-04-12T08:37:52;187.67;;;179.90;;
14698;SDS011;7439;50.804;4.602;2023-04-12T08:40:20;209.23;;;201.00;;
14698;SDS011;7439;50.804;4.602;2023-04-12T08:42:53;215.37;;;206.50;;
14698;SDS011;7439;50.804;4.602;2023-04-12T08:45:20;212.23;;;204.07;;
14698;SDS011;7439;50.804;4.602;2023-04-12T08:48:02;187.37;;;180.03;;
14698;SDS011;7439;50.804;4.602;2023-04-12T08:50:30;160.63;;;153.77;;
14698;SDS011;7439;50.804;4.602;2023-04-12T08:53:00;156.70;;;150.30;;
14698;SDS011;7439;50.804;4.602;2023-04-12T08:55:28;155.20;;;148.53;;
14698;SDS011;7439;50.804;4.602;2023-04-12T08:57:55;154.23;;;147.53;;
14698;SDS011;7439;50.804;4.602;2023-04-12T09:03:09;142.87;;;136.57;;
14698;SDS011;7439;50.804;4.602;2023-04-12T09:05:38;126.13;;;120.67;;
14698;SDS011;7439;50.804;4.602;2023-04-12T09:08:07;117.87;;;112.70;;
14698;SDS011;7439;50.804;4.602;2023-04-12T09:10:36;108.13;;;103.43;;
14698;SDS011;7439;50.804;4.602;2023-04-12T09:13:04;98.63;;;93.47;;
14698;SDS011;7439;50.804;4.602;2023-04-12T09:15:46;93.63;;;88.67;;
14698;SDS011;7439;50.804;4.602;2023-04-12T09:18:13;79.53;;;75.13;;
14698;SDS011;7439;50.804;4.602;2023-04-12T09:23:29;58.17;;;54.53;;
14698;SDS011;7439;50.804;4.602;2023-04-12T09:25:56;60.13;;;56.83;;
14698;SDS011;7439;50.804;4.602;2023-04-12T09:28:24;51.87;;;48.67;;
14698;SDS011;7439;50.804;4.602;2023-04-12T09:30:51;50.07;;;46.87;;
14698;SDS011;7439;50.804;4.602;2023-04-12T09:33:19;44.67;;;41.53;;
14698;SDS011;7439;50.804;4.602;2023-04-12T09:35:47;46.87;;;44.37;;
14698;SDS011;7439;50.804;4.602;2023-04-12T09:38:14;43.37;;;40.20;;
14698;SDS011;7439;50.804;4.602;2023-04-12T09:40:50;38.63;;;36.23;;
14698;SDS011;7439;50.804;4.602;2023-04-12T09:43:18;34.70;;;31.70;;
14698;SDS011;7439;50.804;4.602;2023-04-12T09:45:46;33.10;;;27.90;;
14698;SDS011;7439;50.804;4.602;2023-04-12T09:48:17;25.70;;;23.53;;
14698;SDS011;7439;50.804;4.602;2023-04-12T09:50:44;22.70;;;20.67;;
14698;SDS011;7439;50.804;4.602;2023-04-12T09:53:14;19.47;;;17.57;;
14698;SDS011;7439;50.804;4.602;2023-04-12T09:55:42;18.37;;;16.63;;
14698;SDS011;7439;50.804;4.602;2023-04-12T09:58:11;17.60;;;13.57;;
14698;SDS011;7439;50.804;4.602;2023-04-12T10:00:39;13.60;;;12.07;;
14698;SDS011;7439;50.804;4.602;2023-04-12T10:03:08;15.33;;;9.30;;
14698;SDS011;7439;50.804;4.602;2023-04-12T10:05:35;15.60;;;8.43;;
14698;SDS011;7439;50.804;4.602;2023-04-12T10:08:05;12.87;;;7.50;;
14698;SDS011;7439;50.804;4.602;2023-04-12T10:10:32;14.77;;;7.60;;
14698;SDS011;7439;50.804;4.602;2023-04-12T10:13:01;13.83;;;7.30;;
14698;SDS011;7439;50.804;4.602;2023-04-12T10:15:30;15.23;;;7.77;;
14698;SDS011;7439;50.804;4.602;2023-04-12T10:17:58;15.53;;;7.10;;
14698;SDS011;7439;50.804;4.602;2023-04-12T10:20:26;16.97;;;7.40;;
14698;SDS011;7439;50.804;4.602;2023-04-12T10:22:56;10.20;;;6.07;;
14698;SDS011;7439;50.804;4.602;2023-04-12T10:25:25;8.00;;;5.50;;
14698;SDS011;7439;50.804;4.602;2023-04-12T10:27:55;7.37;;;5.10;;
14698;SDS011;7439;50.804;4.602;2023-04-12T10:30:23;12.47;;;6.53;;
14698;SDS011;7439;50.804;4.602;2023-04-12T10:35:49;12.13;;;7.03;;
14698;SDS011;7439;50.804;4.602;2023-04-12T10:38:16;10.07;;;7.63;;
14698;SDS011;7439;50.804;4.602;2023-04-12T10:43:28;14.83;;;7.10;;
14698;SDS011;7439;50.804;4.602;2023-04-12T10:45:55;12.70;;;7.00;;
14698;SDS011;7439;50.804;4.602;2023-04-12T10:48:32;10.10;;;6.00;;
14698;SDS011;7439;50.804;4.602;2023-04-12T10:51:13;9.10;;;6.27;;
14698;SDS011;7439;50.804;4.602;2023-04-12T10:53:41;9.10;;;6.30;;
14698;SDS011;7439;50.804;4.602;2023-04-12T10:59:04;14.60;;;6.03;;
14698;SDS011;7439;50.804;4.602;2023-04-12T11:01:32;12.17;;;5.60;;
14698;SDS011;7439;50.804;4.602;2023-04-12T11:04:07;12.53;;;5.30;;
14698;SDS011;7439;50.804;4.602;2023-04-12T11:06:41;16.20;;;5.43;;
14698;SDS011;7439;50.804;4.602;2023-04-12T11:09:21;12.63;;;6.80;;
14698;SDS011;7439;50.804;4.602;2023-04-12T11:11:50;14.67;;;7.80;;
14698;SDS011;7439;50.804;4.602;2023-04-12T11:14:17;14.13;;;8.60;;
14698;SDS011;7439;50.804;4.602;2023-04-12T11:19:37;12.23;;;8.03;;
14698;SDS011;7439;50.804;4.602;2023-04-12T11:22:06;14.50;;;7.67;;
14698;SDS011;7439;50.804;4.602;2023-04-12T11:24:36;16.70;;;9.10;;
14698;SDS011;7439;50.804;4.602;2023-04-12T11:27:04;14.40;;;8.33;;
14698;SDS011;7439;50.804;4.602;2023-04-12T11:29:32;13.07;;;8.70;;
14698;SDS011;7439;50.804;4.602;2023-04-12T11:32:01;9.70;;;8.70;;
14698;SDS011;7439;50.804;4.602;2023-04-12T11:34:31;12.83;;;7.43;;
14698;SDS011;7439;50.804;4.602;2023-04-12T11:36:58;8.83;;;6.97;;
14698;SDS011;7439;50.804;4.602;2023-04-12T11:39:38;9.67;;;6.23;;
14698;SDS011;7439;50.804;4.602;2023-04-12T11:42:11;13.33;;;7.07;;
14698;SDS011;7439;50.804;4.602;2023-04-12T11:44:40;10.17;;;6.10;;
14698;SDS011;7439;50.804;4.602;2023-04-12T11:47:11;6.30;;;5.23;;
14698;SDS011;7439;50.804;4.602;2023-04-12T11:49:42;10.37;;;6.40;;
14698;SDS011;7439;50.804;4.602;2023-04-12T11:52:09;7.80;;;5.87;;
14698;SDS011;7439;50.804;4.602;2023-04-12T11:54:41;8.27;;;5.47;;
14698;SDS011;7439;50.804;4.602;2023-04-12T11:57:10;8.60;;;4.27;;
14698;SDS011;7439;50.804;4.602;2023-04-12T11:59:39;6.00;;;3.60;;
14698;SDS011;7439;50.804;4.602;2023-04-12T12:02:06;9.87;;;3.73;;
14698;SDS011;7439;50.804;4.602;2023-04-12T12:04:35;7.70;;;2.83;;
14698;SDS011;7439;50.804;4.602;2023-04-12T12:07:02;7.30;;;3.40;;
14698;SDS011;7439;50.804;4.602;2023-04-12T12:09:33;6.03;;;3.47;;
14698;SDS011;7439;50.804;4.602;2023-04-12T12:12:02;28.90;;;26.93;;
14698;SDS011;7439;50.804;4.602;2023-04-12T12:14:32;177.13;;;170.50;;
14698;SDS011;7439;50.804;4.602;2023-04-12T12:17:01;81.63;;;78.17;;
14698;SDS011;7439;50.804;4.602;2023-04-12T12:19:29;60.50;;;57.90;;
14698;SDS011;7439;50.804;4.602;2023-04-12T12:22:11;38.10;;;36.30;;
14698;SDS011;7439;50.804;4.602;2023-04-12T12:24:39;20.53;;;19.07;;
14698;SDS011;7439;50.804;4.602;2023-04-12T12:27:12;31.87;;;30.13;;
14698;SDS011;7439;50.804;4.602;2023-04-12T12:29:39;37.07;;;35.47;;
14698;SDS011;7439;50.804;4.602;2023-04-12T12:32:10;46.20;;;43.90;;
14698;SDS011;7439;50.804;4.602;2023-04-12T12:34:38;34.37;;;32.40;;
14698;SDS011;7439;50.804;4.602;2023-04-12T12:40:08;28.67;;;27.17;;
14698;SDS011;7439;50.804;4.602;2023-04-12T12:42:45;23.67;;;22.27;;
14698;SDS011;7439;50.804;4.602;2023-04-12T12:45:12;29.13;;;27.43;;
14698;SDS011;7439;50.804;4.602;2023-04-12T12:47:47;29.97;;;28.57;;
14698;SDS011;7439;50.804;4.602;2023-04-12T12:50:15;28.70;;;26.90;;
14698;SDS011;7439;50.804;4.602;2023-04-12T12:52:43;24.90;;;23.43;;
14698;SDS011;7439;50.804;4.602;2023-04-12T12:55:11;35.90;;;34.10;;
14698;SDS011;7439;50.804;4.602;2023-04-12T12:57:38;30.57;;;29.17;;
14698;SDS011;7439;50.804;4.602;2023-04-12T13:00:07;34.50;;;33.10;;
14698;SDS011;7439;50.804;4.602;2023-04-12T13:02:37;30.57;;;29.27;;
14698;SDS011;7439;50.804;4.602;2023-04-12T13:05:05;45.30;;;43.40;;
14698;SDS011;7439;50.804;4.602;2023-04-12T13:07:32;48.13;;;46.13;;
14698;SDS011;7439;50.804;4.602;2023-04-12T13:10:00;58.60;;;56.10;;
14698;SDS011;7439;50.804;4.602;2023-04-12T13:12:28;98.03;;;94.03;;
14698;SDS011;7439;50.804;4.602;2023-04-12T13:14:56;129.43;;;124.13;;
14698;SDS011;7439;50.804;4.602;2023-04-12T13:17:26;130.30;;;125.50;;
14698;SDS011;7439;50.804;4.602;2023-04-12T13:22:50;115.30;;;110.97;;
14698;SDS011;7439;50.804;4.602;2023-04-12T13:25:17;102.07;;;98.17;;
14698;SDS011;7439;50.804;4.602;2023-04-12T13:27:45;87.60;;;84.20;;
14698;SDS011;7439;50.804;4.602;2023-04-12T13:30:12;80.93;;;77.83;;
14698;SDS011;7439;50.804;4.602;2023-04-12T13:32:41;74.27;;;71.27;;
14698;SDS011;7439;50.804;4.602;2023-04-12T13:35:08;51.23;;;49.10;;
14698;SDS011;7439;50.804;4.602;2023-04-12T13:37:36;78.53;;;75.43;;
14698;SDS011;7439;50.804;4.602;2023-04-12T13:43:07;74.70;;;71.70;;
14698;SDS011;7439;50.804;4.602;2023-04-12T13:45:34;83.63;;;80.33;;
14698;SDS011;7439;50.804;4.602;2023-04-12T13:50:52;69.87;;;66.87;;
14698;SDS011;7439;50.804;4.602;2023-04-12T13:53:20;64.43;;;61.50;;
14698;SDS011;7439;50.804;4.602;2023-04-12T13:55:47;59.53;;;56.83;;
14698;SDS011;7439;50.804;4.602;2023-04-12T13:58:15;60.00;;;57.40;;
14698;SDS011;7439;50.804;4.602;2023-04-12T14:00:42;53.93;;;51.73;;
14698;SDS011;7439;50.804;4.602;2023-04-12T14:03:10;51.87;;;49.67;;
14698;SDS011;7439;50.804;4.602;2023-04-12T14:05:38;44.60;;;42.60;;
14698;SDS011;7439;50.804;4.602;2023-04-12T14:08:06;53.23;;;51.10;;
14698;SDS011;7439;50.804;4.602;2023-04-12T14:10:34;41.50;;;39.70;;
14698;SDS011;7439;50.804;4.602;2023-04-12T14:13:01;40.20;;;38.20;;
14698;SDS011;7439;50.804;4.602;2023-04-12T14:15:28;35.60;;;34.20;;
14698;SDS011;7439;50.804;4.602;2023-04-12T14:17:56;27.63;;;26.20;;
14698;SDS011;7439;50.804;4.602;2023-04-12T14:20:23;24.90;;;23.70;;
14698;SDS011;7439;50.804;4.602;2023-04-12T14:22:50;20.07;;;19.07;;
14698;SDS011;7439;50.804;4.602;2023-04-12T14:25:19;19.10;;;18.20;;
14698;SDS011;7439;50.804;4.602;2023-04-12T14:27:47;16.00;;;15.10;;
14698;SDS011;7439;50.804;4.602;2023-04-12T14:30:14;18.53;;;17.63;;
14698;SDS011;7439;50.804;4.602;2023-04-12T14:32:41;16.13;;;15.33;;
14698;SDS011;7439;50.804;4.602;2023-04-12T14:35:09;20.53;;;19.63;;
14698;SDS011;7439;50.804;4.602;2023-04-12T14:37:37;15.50;;;14.70;;
14698;SDS011;7439;50.804;4.602;2023-04-12T14:40:05;20.03;;;19.03;;
14698;SDS011;7439;50.804;4.602;2023-04-12T14:42:34;31.33;;;30.03;;
14698;SDS011;7439;50.804;4.602;2023-04-12T14:45:02;28.20;;;26.80;;
14698;SDS011;7439;50.804;4.602;2023-04-12T14:47:32;30.60;;;29.00;;
14698;SDS011;7439;50.804;4.602;2023-04-12T14:53:03;27.77;;;26.17;;
14698;SDS011;7439;50.804;4.602;2023-04-12T14:55:33;33.07;;;31.27;;
14698;SDS011;7439;50.804;4.602;2023-04-12T14:58:02;27.73;;;26.23;;
14698;SDS011;7439;50.804;4.602;2023-04-12T15:00:31;22.33;;;21.00;;
14698;SDS011;7439;50.804;4.602;2023-04-12T15:02:59;16.67;;;15.87;;
14698;SDS011;7439;50.804;4.602;2023-04-12T15:05:26;19.17;;;18.27;;
14698;SDS011;7439;50.804;4.602;2023-04-12T15:08:11;16.20;;;15.20;;
14698;SDS011;7439;50.804;4.602;2023-04-12T15:38:53;5.47;;;4.00;;
14698;SDS011;7439;50.804;4.602;2023-04-12T15:41:21;4.40;;;3.90;;
14698;SDS011;7439;50.804;4.602;2023-04-12T15:43:48;5.47;;;4.47;;
14698;SDS011;7439;50.804;4.602;2023-04-12T15:46:19;4.83;;;3.93;;
14698;SDS011;7439;50.804;4.602;2023-04-12T15:48:46;8.23;;;4.60;;
14698;SDS011;7439;50.804;4.602;2023-04-12T15:51:13;6.10;;;4.47;;
14698;SDS011;7439;50.804;4.602;2023-04-12T15:53:41;4.87;;;4.03;;
14698;SDS011;7439;50.804;4.602;2023-04-12T15:56:10;6.93;;;4.30;;
14698;SDS011;7439;50.804;4.602;2023-04-12T15:58:39;4.07;;;3.67;;